sensor_id;sensor_type;location;lat;lon;timestamp;pressure;altitude;pressure_sealevel;temperature;humidity
75640;BME280;64233;51.486;6.332;2022-10-31T00:00:48;101786.63;;;12.95;100.00
75640;BME280;64233;51.486;6.332;2022-10-31T00:03:14;101785.94;;;12.87;100.00
75640;BME280;64233;51.486;6.332;2022-10-31T00:05:47;101782.66;;;12.85;100.00
75640;BME280;64233;51.486;6.332;2022-10-31T00:08:14;101781.63;;;12.86;100.00
75640;BME280;64233;51.486;6.332;2022-10-31T00:10:40;101786.09;;;12.81;100.00
75640;BME280;64233;51.486;6.332;2022-10-31T00:13:07;101780.84;;;12.74;100.00
75640;BME280;64233;51.486;6.332;2022-10-31T00:15:34;101788.50;;;12.65;100.00
75640;BME280;64233;51.486;6.332;2022-10-31T00:17:59;101794.84;;;12.59;100.00
75640;BME280;64233;51.486;6.332;2022-10-31T00:20:24;101785.00;;;12.53;100.00
75640;BME280;64233;51.486;6.332;2022-10-31T00:22:50;101783.84;;;12.49;100.00
75640;BME280;64233;51.486;6.332;2022-10-31T00:25:15;101789.47;;;12.47;100.00
75640;BME280;64233;51.486;6.332;2022-10-31T00:27:40;101789.59;;;12.52;100.00
75640;BME280;64233;51.486;6.332;2022-10-31T00:30:06;101805.41;;;12.49;100.00
75640;BME280;64233;51.486;6.332;2022-10-31T00:32:31;101796.75;;;12.47;100.00
75640;BME280;64233;51.486;6.332;2022-10-31T00:34:57;101788.56;;;12.42;100.00
75640;BME280;64233;51.486;6.332;2022-10-31T00:37:22;101790.31;;;12.36;100.00
75640;BME280;64233;51.486;6.332;2022-10-31T00:39:47;101790.47;;;12.29;100.00
75640;BME280;64233;51.486;6.332;2022-10-31T00:42:14;101783.34;;;12.23;100.00
75640;BME280;64233;51.486;6.332;2022-10-31T00:44:40;101789.44;;;12.18;100.00
75640;BME280;64233;51.486;6.332;2022-10-31T00:47:05;101781.84;;;12.15;100.00
75640;BME280;64233;51.486;6.332;2022-10-31T00:49:30;101777.16;;;12.11;100.00
75640;BME280;64233;51.486;6.332;2022-10-31T00:51:55;101779.38;;;12.02;100.00
75640;BME280;64233;51.486;6.332;2022-10-31T00:54:21;101776.00;;;11.95;100.00
75640;BME280;64233;51.486;6.332;2022-10-31T00:56:46;101779.59;;;11.88;100.00
75640;BME280;64233;51.486;6.332;2022-10-31T00:59:11;101778.91;;;11.81;100.00
75640;BME280;64233;51.486;6.332;2022-10-31T01:01:36;101778.56;;;11.78;100.00
75640;BME280;64233;51.486;6.332;2022-10-31T01:04:02;101784.88;;;11.83;100.00
75640;BME280;64233;51.486;6.332;2022-10-31T01:06:27;101788.72;;;11.87;100.00
75640;BME280;64233;51.486;6.332;2022-10-31T01:08:52;101781.94;;;11.85;100.00
75640;BME280;64233;51.486;6.332;2022-10-31T01:11:20;101773.53;;;11.81;100.00
75640;BME280;64233;51.486;6.332;2022-10-31T01:13:46;101767.56;;;11.79;100.00
75640;BME280;64233;51.486;6.332;2022-10-31T01:16:15;101772.94;;;11.79;100.00
75640;BME280;64233;51.486;6.332;2022-10-31T01:18:40;101768.59;;;11.66;100.00
75640;BME280;64233;51.486;6.332;2022-10-31T01:21:12;101763.00;;;11.56;100.00
75640;BME280;64233;51.486;6.332;2022-10-31T01:23:37;101774.81;;;11.55;100.00
75640;BME280;64233;51.486;6.332;2022-10-31T01:26:12;101769.19;;;11.57;100.00
75640;BME280;64233;51.486;6.332;2022-10-31T01:28:43;101779.59;;;11.53;100.00
75640;BME280;64233;51.486;6.332;2022-10-31T01:31:09;101780.19;;;11.55;100.00
75640;BME280;64233;51.486;6.332;2022-10-31T01:33:35;101787.81;;;11.58;100.00
75640;BME280;64233;51.486;6.332;2022-10-31T01:36:01;101784.50;;;11.56;100.00
75640;BME280;64233;51.486;6.332;2022-10-31T01:38:35;101790.56;;;11.40;100.00
75640;BME280;64233;51.486;6.332;2022-10-31T01:41:00;101789.75;;;11.39;100.00
75640;BME280;64233;51.486;6.332;2022-10-31T01:43:51;101792.53;;;11.32;100.00
75640;BME280;64233;51.486;6.332;2022-10-31T01:46:23;101793.72;;;11.36;100.00
75640;BME280;64233;51.486;6.332;2022-10-31T01:48:52;101789.28;;;11.30;100.00
75640;BME280;64233;51.486;6.332;2022-10-31T01:51:18;101794.88;;;11.29;100.00
75640;BME280;64233;51.486;6.332;2022-10-31T01:53:45;101791.97;;;11.30;100.00
75640;BME280;64233;51.486;6.332;2022-10-31T01:56:13;101782.94;;;11.13;100.00
75640;BME280;64233;51.486;6.332;2022-10-31T01:58:39;101785.34;;;11.02;100.00
75640;BME280;64233;51.486;6.332;2022-10-31T02:01:05;101779.47;;;10.94;100.00
75640;BME280;64233;51.486;6.332;2022-10-31T02:03:31;101782.16;;;10.94;100.00
75640;BME280;64233;51.486;6.332;2022-10-31T02:05:57;101780.50;;;10.93;100.00
75640;BME280;64233;51.486;6.332;2022-10-31T02:08:27;101776.22;;;10.92;100.00
75640;BME280;64233;51.486;6.332;2022-10-31T02:10:53;101773.22;;;10.81;100.00
75640;BME280;64233;51.486;6.332;2022-10-31T02:13:19;101767.50;;;10.78;100.00
75640;BME280;64233;51.486;6.332;2022-10-31T02:15:47;101777.56;;;10.82;100.00
75640;BME280;64233;51.486;6.332;2022-10-31T02:18:14;101777.47;;;10.89;100.00
75640;BME280;64233;51.486;6.332;2022-10-31T02:20:48;101777.56;;;10.82;100.00
75640;BME280;64233;51.486;6.332;2022-10-31T02:26:28;101779.03;;;10.66;100.00
75640;BME280;64233;51.486;6.332;2022-10-31T02:34:47;101771.34;;;10.51;100.00
75640;BME280;64233;51.486;6.332;2022-10-31T02:37:33;101771.75;;;10.55;100.00
75640;BME280;64233;51.486;6.332;2022-10-31T02:40:21;101769.84;;;10.56;100.00
75640;BME280;64233;51.486;6.332;2022-10-31T02:42:52;101766.50;;;10.60;100.00
75640;BME280;64233;51.486;6.332;2022-10-31T02:45:33;101762.19;;;10.59;100.00
75640;BME280;64233;51.486;6.332;2022-10-31T02:48:06;101762.41;;;10.58;100.00
75640;BME280;64233;51.486;6.332;2022-10-31T02:50:35;101768.00;;;10.56;100.00
75640;BME280;64233;51.486;6.332;2022-10-31T02:53:02;101768.44;;;10.53;100.00
75640;BME280;64233;51.486;6.332;2022-10-31T02:57:58;101754.66;;;10.49;100.00
75640;BME280;64233;51.486;6.332;2022-10-31T03:00:25;101753.94;;;10.42;100.00
75640;BME280;64233;51.486;6.332;2022-10-31T03:03:06;101761.88;;;10.30;100.00
75640;BME280;64233;51.486;6.332;2022-10-31T03:11:10;101761.53;;;10.27;100.00
75640;BME280;64233;51.486;6.332;2022-10-31T03:18:46;101776.66;;;10.40;100.00
75640;BME280;64233;51.486;6.332;2022-10-31T03:21:36;101784.47;;;10.23;100.00
75640;BME280;64233;51.486;6.332;2022-10-31T03:24:05;101783.06;;;10.20;100.00
75640;BME280;64233;51.486;6.332;2022-10-31T03:26:32;101783.91;;;10.21;100.00
75640;BME280;64233;51.486;6.332;2022-10-31T03:29:05;101779.41;;;10.14;100.00
75640;BME280;64233;51.486;6.332;2022-10-31T03:31:44;101771.63;;;10.06;100.00
75640;BME280;64233;51.486;6.332;2022-10-31T03:34:12;101766.59;;;9.98;100.00
75640;BME280;64233;51.486;6.332;2022-10-31T03:36:39;101769.47;;;9.96;100.00
75640;BME280;64233;51.486;6.332;2022-10-31T03:39:08;101770.97;;;9.92;100.00
75640;BME280;64233;51.486;6.332;2022-10-31T03:41:41;101773.28;;;9.89;100.00
75640;BME280;64233;51.486;6.332;2022-10-31T03:44:11;101768.13;;;9.87;100.00
75640;BME280;64233;51.486;6.332;2022-10-31T03:46:37;101769.78;;;9.88;100.00
75640;BME280;64233;51.486;6.332;2022-10-31T03:49:03;101770.50;;;9.77;100.00
75640;BME280;64233;51.486;6.332;2022-10-31T03:54:13;101764.94;;;9.53;100.00
75640;BME280;64233;51.486;6.332;2022-10-31T03:56:48;101756.91;;;9.53;100.00
75640;BME280;64233;51.486;6.332;2022-10-31T03:59:33;101755.47;;;9.51;100.00
75640;BME280;64233;51.486;6.332;2022-10-31T04:02:03;101755.66;;;9.56;100.00
75640;BME280;64233;51.486;6.332;2022-10-31T04:04:30;101756.38;;;9.44;100.00
75640;BME280;64233;51.486;6.332;2022-10-31T04:06:58;101752.09;;;9.37;100.00
75640;BME280;64233;51.486;6.332;2022-10-31T04:09:26;101749.84;;;9.34;100.00
75640;BME280;64233;51.486;6.332;2022-10-31T04:11:54;101747.38;;;9.32;100.00
75640;BME280;64233;51.486;6.332;2022-10-31T04:14:24;101755.41;;;9.32;100.00
75640;BME280;64233;51.486;6.332;2022-10-31T04:16:50;101739.03;;;9.47;100.00
75640;BME280;64233;51.486;6.332;2022-10-31T04:19:16;101739.44;;;9.44;100.00
75640;BME280;64233;51.486;6.332;2022-10-31T04:21:41;101752.44;;;9.47;100.00
75640;BME280;64233;51.486;6.332;2022-10-31T04:24:10;101748.75;;;9.41;100.00
75640;BME280;64233;51.486;6.332;2022-10-31T04:26:35;101750.66;;;9.34;100.00
75640;BME280;64233;51.486;6.332;2022-10-31T04:29:01;101747.22;;;9.27;100.00
75640;BME280;64233;51.486;6.332;2022-10-31T04:31:26;101747.66;;;9.24;100.00
75640;BME280;64233;51.486;6.332;2022-10-31T04:33:52;101753.66;;;9.19;100.00
75640;BME280;64233;51.486;6.332;2022-10-31T04:36:17;101752.16;;;9.30;100.00
75640;BME280;64233;51.486;6.332;2022-10-31T04:38:42;101760.78;;;9.32;100.00
75640;BME280;64233;51.486;6.332;2022-10-31T04:41:08;101759.53;;;9.35;100.00
75640;BME280;64233;51.486;6.332;2022-10-31T04:43:33;101758.53;;;9.29;100.00
75640;BME280;64233;51.486;6.332;2022-10-31T04:45:58;101761.44;;;9.27;100.00
75640;BME280;64233;51.486;6.332;2022-10-31T04:48:24;101767.28;;;9.18;100.00
75640;BME280;64233;51.486;6.332;2022-10-31T04:50:49;101761.31;;;9.16;100.00
75640;BME280;64233;51.486;6.332;2022-10-31T04:53:15;101761.28;;;8.90;100.00
75640;BME280;64233;51.486;6.332;2022-10-31T04:55:40;101757.44;;;8.79;100.00
75640;BME280;64233;51.486;6.332;2022-10-31T04:58:05;101756.63;;;8.79;100.00
75640;BME280;64233;51.486;6.332;2022-10-31T05:00:30;101746.84;;;8.91;100.00
75640;BME280;64233;51.486;6.332;2022-10-31T05:02:57;101745.94;;;9.04;100.00
75640;BME280;64233;51.486;6.332;2022-10-31T05:05:25;101748.13;;;9.14;100.00
75640;BME280;64233;51.486;6.332;2022-10-31T05:07:51;101749.97;;;9.20;100.00
75640;BME280;64233;51.486;6.332;2022-10-31T05:10:19;101741.91;;;9.20;100.00
75640;BME280;64233;51.486;6.332;2022-10-31T05:12:53;101735.72;;;9.20;100.00
75640;BME280;64233;51.486;6.332;2022-10-31T05:15:20;101738.34;;;9.26;100.00
75640;BME280;64233;51.486;6.332;2022-10-31T05:17:46;101727.97;;;9.37;100.00
75640;BME280;64233;51.486;6.332;2022-10-31T05:20:12;101736.44;;;9.34;100.00
75640;BME280;64233;51.486;6.332;2022-10-31T05:22:45;101734.22;;;9.30;100.00
75640;BME280;64233;51.486;6.332;2022-10-31T05:25:11;101741.31;;;9.18;100.00
75640;BME280;64233;51.486;6.332;2022-10-31T05:27:44;101738.50;;;9.06;100.00
75640;BME280;64233;51.486;6.332;2022-10-31T05:30:11;101735.31;;;8.91;100.00
75640;BME280;64233;51.486;6.332;2022-10-31T05:32:38;101739.28;;;8.82;100.00
75640;BME280;64233;51.486;6.332;2022-10-31T05:35:04;101729.31;;;8.64;100.00
75640;BME280;64233;51.486;6.332;2022-10-31T05:37:30;101719.06;;;8.54;100.00
75640;BME280;64233;51.486;6.332;2022-10-31T05:39:55;101723.19;;;8.50;100.00
75640;BME280;64233;51.486;6.332;2022-10-31T05:42:20;101720.13;;;8.46;100.00
75640;BME280;64233;51.486;6.332;2022-10-31T05:44:46;101721.19;;;8.45;100.00
75640;BME280;64233;51.486;6.332;2022-10-31T05:47:11;101725.66;;;8.51;100.00
75640;BME280;64233;51.486;6.332;2022-10-31T05:49:36;101728.94;;;8.53;100.00
75640;BME280;64233;51.486;6.332;2022-10-31T05:52:01;101725.56;;;8.65;100.00
75640;BME280;64233;51.486;6.332;2022-10-31T05:54:27;101734.00;;;8.68;100.00
75640;BME280;64233;51.486;6.332;2022-10-31T05:56:52;101721.50;;;8.62;100.00
75640;BME280;64233;51.486;6.332;2022-10-31T05:59:17;101719.19;;;8.66;100.00
75640;BME280;64233;51.486;6.332;2022-10-31T06:01:42;101720.97;;;8.78;100.00
75640;BME280;64233;51.486;6.332;2022-10-31T06:04:08;101716.69;;;8.77;100.00
75640;BME280;64233;51.486;6.332;2022-10-31T06:06:33;101719.16;;;8.72;100.00
75640;BME280;64233;51.486;6.332;2022-10-31T06:08:58;101715.88;;;8.70;100.00
75640;BME280;64233;51.486;6.332;2022-10-31T06:11:24;101721.84;;;8.72;100.00
75640;BME280;64233;51.486;6.332;2022-10-31T06:13:49;101719.69;;;8.88;100.00
75640;BME280;64233;51.486;6.332;2022-10-31T06:16:14;101720.50;;;8.88;100.00
75640;BME280;64233;51.486;6.332;2022-10-31T06:18:39;101729.19;;;8.84;100.00
75640;BME280;64233;51.486;6.332;2022-10-31T06:21:05;101734.56;;;8.77;100.00
75640;BME280;64233;51.486;6.332;2022-10-31T06:23:30;101737.28;;;8.70;100.00
75640;BME280;64233;51.486;6.332;2022-10-31T06:25:55;101736.13;;;8.59;100.00
75640;BME280;64233;51.486;6.332;2022-10-31T06:28:20;101733.25;;;8.54;100.00
75640;BME280;64233;51.486;6.332;2022-10-31T06:30:46;101724.19;;;8.55;100.00
75640;BME280;64233;51.486;6.332;2022-10-31T06:33:11;101720.16;;;8.33;100.00
75640;BME280;64233;51.486;6.332;2022-10-31T06:35:36;101717.53;;;8.19;100.00
75640;BME280;64233;51.486;6.332;2022-10-31T06:38:01;101710.78;;;8.10;100.00
75640;BME280;64233;51.486;6.332;2022-10-31T06:40:27;101712.66;;;8.03;100.00
75640;BME280;64233;51.486;6.332;2022-10-31T06:42:56;101713.69;;;8.02;100.00
75640;BME280;64233;51.486;6.332;2022-10-31T06:45:22;101716.78;;;8.05;100.00
75640;BME280;64233;51.486;6.332;2022-10-31T06:47:52;101705.22;;;8.18;100.00
75640;BME280;64233;51.486;6.332;2022-10-31T06:50:19;101719.31;;;8.46;100.00
75640;BME280;64233;51.486;6.332;2022-10-31T06:52:53;101713.69;;;8.60;100.00
75640;BME280;64233;51.486;6.332;2022-10-31T06:55:18;101716.31;;;8.67;100.00
75640;BME280;64233;51.486;6.332;2022-10-31T06:57:52;101722.91;;;8.65;100.00
75640;BME280;64233;51.486;6.332;2022-10-31T07:00:18;101715.88;;;8.70;100.00
75640;BME280;64233;51.486;6.332;2022-10-31T07:02:59;101719.81;;;8.68;100.00
75640;BME280;64233;51.486;6.332;2022-10-31T07:05:25;101713.50;;;8.55;100.00
75640;BME280;64233;51.486;6.332;2022-10-31T07:08:00;101710.47;;;8.45;100.00
75640;BME280;64233;51.486;6.332;2022-10-31T07:10:27;101717.03;;;8.42;100.00
75640;BME280;64233;51.486;6.332;2022-10-31T07:12:57;101721.16;;;8.38;100.00
75640;BME280;64233;51.486;6.332;2022-10-31T07:15:23;101730.44;;;8.36;100.00
75640;BME280;64233;51.486;6.332;2022-10-31T07:17:49;101726.50;;;8.38;100.00
75640;BME280;64233;51.486;6.332;2022-10-31T07:20:21;101719.94;;;8.41;100.00
75640;BME280;64233;51.486;6.332;2022-10-31T07:22:53;101720.75;;;8.48;100.00
75640;BME280;64233;51.486;6.332;2022-10-31T07:25:25;101721.53;;;8.55;100.00
75640;BME280;64233;51.486;6.332;2022-10-31T07:27:51;101722.97;;;8.58;100.00
75640;BME280;64233;51.486;6.332;2022-10-31T07:30:16;101730.66;;;8.79;100.00
75640;BME280;64233;51.486;6.332;2022-10-31T07:32:45;101723.19;;;8.88;100.00
75640;BME280;64233;51.486;6.332;2022-10-31T07:35:13;101730.16;;;8.96;100.00
75640;BME280;64233;51.486;6.332;2022-10-31T07:37:39;101726.59;;;9.02;100.00
75640;BME280;64233;51.486;6.332;2022-10-31T07:40:05;101732.13;;;9.07;100.00
75640;BME280;64233;51.486;6.332;2022-10-31T07:42:39;101736.59;;;9.13;100.00
75640;BME280;64233;51.486;6.332;2022-10-31T07:45:05;101743.75;;;9.20;100.00
75640;BME280;64233;51.486;6.332;2022-10-31T07:47:41;101734.25;;;9.24;100.00
75640;BME280;64233;51.486;6.332;2022-10-31T07:50:08;101732.25;;;9.19;100.00
75640;BME280;64233;51.486;6.332;2022-10-31T07:52:34;101734.75;;;9.14;100.00
75640;BME280;64233;51.486;6.332;2022-10-31T07:55:00;101739.69;;;9.17;100.00
75640;BME280;64233;51.486;6.332;2022-10-31T07:57:25;101742.50;;;9.22;100.00
75640;BME280;64233;51.486;6.332;2022-10-31T07:59:50;101732.78;;;9.28;100.00
75640;BME280;64233;51.486;6.332;2022-10-31T08:02:15;101737.69;;;9.31;100.00
75640;BME280;64233;51.486;6.332;2022-10-31T08:04:41;101741.53;;;9.42;100.00
75640;BME280;64233;51.486;6.332;2022-10-31T08:07:06;101738.81;;;9.48;100.00
75640;BME280;64233;51.486;6.332;2022-10-31T08:09:38;101742.84;;;9.58;100.00
75640;BME280;64233;51.486;6.332;2022-10-31T08:12:04;101741.75;;;9.65;100.00
75640;BME280;64233;51.486;6.332;2022-10-31T08:14:29;101741.44;;;9.74;100.00
75640;BME280;64233;51.486;6.332;2022-10-31T08:16:55;101747.81;;;9.98;100.00
75640;BME280;64233;51.486;6.332;2022-10-31T08:19:21;101742.69;;;10.15;100.00
75640;BME280;64233;51.486;6.332;2022-10-31T08:21:46;101747.13;;;10.21;100.00
75640;BME280;64233;51.486;6.332;2022-10-31T08:24:11;101738.78;;;10.29;100.00
75640;BME280;64233;51.486;6.332;2022-10-31T08:26:37;101734.84;;;10.32;100.00
75640;BME280;64233;51.486;6.332;2022-10-31T08:29:02;101733.34;;;10.36;100.00
75640;BME280;64233;51.486;6.332;2022-10-31T08:31:34;101726.88;;;10.44;100.00
75640;BME280;64233;51.486;6.332;2022-10-31T08:34:06;101728.06;;;10.48;100.00
75640;BME280;64233;51.486;6.332;2022-10-31T08:36:32;101732.97;;;10.51;100.00
75640;BME280;64233;51.486;6.332;2022-10-31T08:38:57;101732.03;;;10.57;100.00
75640;BME280;64233;51.486;6.332;2022-10-31T08:41:22;101735.47;;;10.64;100.00
75640;BME280;64233;51.486;6.332;2022-10-31T08:43:48;101742.31;;;10.79;100.00
75640;BME280;64233;51.486;6.332;2022-10-31T08:46:13;101736.16;;;10.90;100.00
75640;BME280;64233;51.486;6.332;2022-10-31T08:48:38;101734.75;;;10.99;100.00
75640;BME280;64233;51.486;6.332;2022-10-31T08:51:04;101725.91;;;11.11;100.00
75640;BME280;64233;51.486;6.332;2022-10-31T08:53:29;101721.00;;;11.19;100.00
75640;BME280;64233;51.486;6.332;2022-10-31T08:55:55;101720.34;;;11.24;100.00
75640;BME280;64233;51.486;6.332;2022-10-31T08:58:22;101719.97;;;11.32;100.00
75640;BME280;64233;51.486;6.332;2022-10-31T09:00:50;101718.81;;;11.40;100.00
75640;BME280;64233;51.486;6.332;2022-10-31T09:03:24;101706.31;;;11.46;100.00
75640;BME280;64233;51.486;6.332;2022-10-31T09:05:50;101698.34;;;11.51;100.00
75640;BME280;64233;51.486;6.332;2022-10-31T09:08:16;101701.53;;;11.60;100.00
75640;BME280;64233;51.486;6.332;2022-10-31T09:10:42;101693.19;;;11.73;100.00
75640;BME280;64233;51.486;6.332;2022-10-31T09:13:16;101680.66;;;11.79;100.00
75640;BME280;64233;51.486;6.332;2022-10-31T09:15:43;101677.84;;;11.85;100.00
75640;BME280;64233;51.486;6.332;2022-10-31T09:18:10;101665.34;;;11.91;100.00
75640;BME280;64233;51.486;6.332;2022-10-31T09:20:43;101666.59;;;12.00;100.00
75640;BME280;64233;51.486;6.332;2022-10-31T09:23:17;101662.75;;;12.08;100.00
75640;BME280;64233;51.486;6.332;2022-10-31T09:25:44;101658.28;;;12.14;100.00
75640;BME280;64233;51.486;6.332;2022-10-31T09:28:14;101656.81;;;12.23;100.00
75640;BME280;64233;51.486;6.332;2022-10-31T09:30:40;101655.53;;;12.26;100.00
75640;BME280;64233;51.486;6.332;2022-10-31T09:33:11;101649.41;;;12.30;100.00
75640;BME280;64233;51.486;6.332;2022-10-31T09:35:37;101650.56;;;12.34;100.00
75640;BME280;64233;51.486;6.332;2022-10-31T09:38:17;101655.25;;;12.39;100.00
75640;BME280;64233;51.486;6.332;2022-10-31T09:41:07;101651.91;;;12.49;100.00
75640;BME280;64233;51.486;6.332;2022-10-31T09:49:32;101644.34;;;12.80;99.88
75640;BME280;64233;51.486;6.332;2022-10-31T09:52:13;101653.69;;;12.89;99.36
75640;BME280;64233;51.486;6.332;2022-10-31T09:57:13;101636.91;;;13.21;98.97
75640;BME280;64233;51.486;6.332;2022-10-31T09:59:40;101638.94;;;13.31;98.71
75640;BME280;64233;51.486;6.332;2022-10-31T10:04:59;101631.09;;;13.29;97.02
75640;BME280;64233;51.486;6.332;2022-10-31T10:10:40;101644.19;;;13.37;97.10
75640;BME280;64233;51.486;6.332;2022-10-31T10:22:05;101640.81;;;13.69;96.22
75640;BME280;64233;51.486;6.332;2022-10-31T10:24:55;101642.13;;;13.89;96.34
75640;BME280;64233;51.486;6.332;2022-10-31T10:27:31;101645.78;;;14.00;95.93
75640;BME280;64233;51.486;6.332;2022-10-31T10:30:21;101643.44;;;14.08;95.37
75640;BME280;64233;51.486;6.332;2022-10-31T10:32:50;101632.66;;;14.08;93.93
75640;BME280;64233;51.486;6.332;2022-10-31T10:35:50;101624.91;;;14.17;94.85
75640;BME280;64233;51.486;6.332;2022-10-31T10:38:16;101612.06;;;14.29;93.81
75640;BME280;64233;51.486;6.332;2022-10-31T10:40:42;101605.28;;;14.27;94.35
75640;BME280;64233;51.486;6.332;2022-10-31T10:43:17;101607.19;;;14.26;94.26
75640;BME280;64233;51.486;6.332;2022-10-31T10:48:50;101609.44;;;14.35;94.77
75640;BME280;64233;51.486;6.332;2022-10-31T10:51:23;101608.84;;;14.33;94.16
75640;BME280;64233;51.486;6.332;2022-10-31T10:56:36;101582.28;;;14.19;96.07
75640;BME280;64233;51.486;6.332;2022-10-31T10:59:03;101566.03;;;14.14;95.41
75640;BME280;64233;51.486;6.332;2022-10-31T11:01:28;101558.50;;;14.16;96.35
75640;BME280;64233;51.486;6.332;2022-10-31T11:03:54;101541.47;;;14.16;96.65
75640;BME280;64233;51.486;6.332;2022-10-31T11:06:22;101535.81;;;14.17;96.34
75640;BME280;64233;51.486;6.332;2022-10-31T11:08:50;101548.78;;;14.20;95.40
75640;BME280;64233;51.486;6.332;2022-10-31T11:11:31;101562.66;;;14.29;94.98
75640;BME280;64233;51.486;6.332;2022-10-31T11:14:04;101559.47;;;14.37;94.91
75640;BME280;64233;51.486;6.332;2022-10-31T11:16:33;101577.09;;;14.45;94.06
75640;BME280;64233;51.486;6.332;2022-10-31T11:21:37;101581.47;;;14.51;94.07
75640;BME280;64233;51.486;6.332;2022-10-31T11:24:11;101587.19;;;14.55;94.35
75640;BME280;64233;51.486;6.332;2022-10-31T11:26:38;101577.69;;;14.52;93.59
75640;BME280;64233;51.486;6.332;2022-10-31T11:29:05;101566.94;;;14.57;93.27
75640;BME280;64233;51.486;6.332;2022-10-31T11:31:35;101563.97;;;14.59;93.98
75640;BME280;64233;51.486;6.332;2022-10-31T11:34:03;101557.81;;;14.63;94.09
75640;BME280;64233;51.486;6.332;2022-10-31T11:36:35;101549.19;;;14.67;93.52
75640;BME280;64233;51.486;6.332;2022-10-31T11:39:03;101533.28;;;14.70;94.32
75640;BME280;64233;51.486;6.332;2022-10-31T11:41:35;101533.84;;;14.72;93.58
75640;BME280;64233;51.486;6.332;2022-10-31T11:44:10;101527.09;;;14.75;94.15
75640;BME280;64233;51.486;6.332;2022-10-31T11:46:47;101521.16;;;14.78;93.18
75640;BME280;64233;51.486;6.332;2022-10-31T11:49:20;101519.84;;;14.80;93.20
75640;BME280;64233;51.486;6.332;2022-10-31T11:51:51;101500.41;;;14.84;95.31
75640;BME280;64233;51.486;6.332;2022-10-31T11:54:25;101492.28;;;14.84;93.18
75640;BME280;64233;51.486;6.332;2022-10-31T11:56:51;101502.03;;;14.85;94.46
75640;BME280;64233;51.486;6.332;2022-10-31T11:59:30;101491.50;;;14.88;94.38
75640;BME280;64233;51.486;6.332;2022-10-31T12:01:58;101479.59;;;14.89;92.94
75640;BME280;64233;51.486;6.332;2022-10-31T12:04:37;101465.56;;;14.92;94.71
75640;BME280;64233;51.486;6.332;2022-10-31T12:07:05;101466.94;;;14.95;94.14
75640;BME280;64233;51.486;6.332;2022-10-31T12:09:34;101459.13;;;14.98;94.18
75640;BME280;64233;51.486;6.332;2022-10-31T12:12:48;101456.16;;;15.05;94.32
75640;BME280;64233;51.486;6.332;2022-10-31T12:15:30;101452.16;;;15.13;93.18
75640;BME280;64233;51.486;6.332;2022-10-31T12:20:58;101452.44;;;15.22;92.85
75640;BME280;64233;51.486;6.332;2022-10-31T12:26:24;101442.19;;;15.29;92.71
75640;BME280;64233;51.486;6.332;2022-10-31T12:42:32;101396.78;;;15.52;92.34
75640;BME280;64233;51.486;6.332;2022-10-31T12:45:29;101393.28;;;15.56;91.52
75640;BME280;64233;51.486;6.332;2022-10-31T12:50:33;101374.88;;;15.63;91.94
75640;BME280;64233;51.486;6.332;2022-10-31T12:56:21;101368.66;;;15.78;89.81
75640;BME280;64233;51.486;6.332;2022-10-31T12:58:56;101356.50;;;15.86;89.84
75640;BME280;64233;51.486;6.332;2022-10-31T13:01:34;101351.88;;;15.92;89.95
75640;BME280;64233;51.486;6.332;2022-10-31T13:04:09;101351.88;;;16.02;89.12
75640;BME280;64233;51.486;6.332;2022-10-31T13:06:42;101344.84;;;16.06;87.69
75640;BME280;64233;51.486;6.332;2022-10-31T13:09:11;101327.22;;;16.09;88.29
75640;BME280;64233;51.486;6.332;2022-10-31T13:12:01;101307.97;;;16.10;87.83
75640;BME280;64233;51.486;6.332;2022-10-31T13:14:35;101300.97;;;16.09;88.26
75640;BME280;64233;51.486;6.332;2022-10-31T13:17:02;101299.34;;;16.08;87.38
75640;BME280;64233;51.486;6.332;2022-10-31T13:19:33;101288.78;;;16.12;86.97
75640;BME280;64233;51.486;6.332;2022-10-31T13:22:07;101282.53;;;16.11;86.88
75640;BME280;64233;51.486;6.332;2022-10-31T13:24:43;101278.75;;;16.17;86.78
75640;BME280;64233;51.486;6.332;2022-10-31T13:27:14;101287.66;;;16.18;87.01
75640;BME280;64233;51.486;6.332;2022-10-31T13:32:18;101280.31;;;16.29;87.04
75640;BME280;64233;51.486;6.332;2022-10-31T13:34:51;101281.38;;;16.33;86.54
75640;BME280;64233;51.486;6.332;2022-10-31T13:37:28;101282.72;;;16.35;86.61
75640;BME280;64233;51.486;6.332;2022-10-31T13:40:05;101275.69;;;16.34;87.31
75640;BME280;64233;51.486;6.332;2022-10-31T13:45:16;101290.03;;;16.35;87.12
75640;BME280;64233;51.486;6.332;2022-10-31T13:47:42;101273.22;;;16.38;87.30
75640;BME280;64233;51.486;6.332;2022-10-31T13:50:28;101280.50;;;16.43;87.72
75640;BME280;64233;51.486;6.332;2022-10-31T13:55:44;101256.09;;;16.53;86.99
75640;BME280;64233;51.486;6.332;2022-10-31T13:58:24;101255.81;;;16.55;86.59
75640;BME280;64233;51.486;6.332;2022-10-31T14:03:41;101234.06;;;16.65;85.79
75640;BME280;64233;51.486;6.332;2022-10-31T14:06:08;101234.84;;;16.70;85.92
75640;BME280;64233;51.486;6.332;2022-10-31T14:08:38;101233.72;;;16.77;85.54
75640;BME280;64233;51.486;6.332;2022-10-31T14:11:06;101216.34;;;16.83;84.42
75640;BME280;64233;51.486;6.332;2022-10-31T14:13:36;101220.41;;;16.85;85.23
75640;BME280;64233;51.486;6.332;2022-10-31T14:16:18;101215.50;;;16.87;83.99
75640;BME280;64233;51.486;6.332;2022-10-31T14:19:17;101209.25;;;16.92;84.21
75640;BME280;64233;51.486;6.332;2022-10-31T14:21:45;101200.53;;;16.95;84.40
75640;BME280;64233;51.486;6.332;2022-10-31T14:24:29;101196.50;;;16.93;84.55
75640;BME280;64233;51.486;6.332;2022-10-31T14:27:42;101198.06;;;16.99;84.67
75640;BME280;64233;51.486;6.332;2022-10-31T14:29:48;101192.66;;;16.99;84.44